Time;durP1;ratioP1;P1;durP2;ratioP2;P2;SDS_P1;SDS_P2;PMS_P1;PMS_P2;Temp;Humidity;BMP_temperature;BMP_pressure;BME280_temperature;BME280_humidity;BME280_pressure;Samples;Min_cycle;Max_cycle;Signal;HPM_P1;HPM_P2
2022/12/05 00:01:57;;;;;;;27.73;16.50;;;13.70;53.80;;;;;;4994680;28;20473;-81
2022/12/05 00:04:25;;;;;;;29.70;17.10;;;13.70;54.00;;;;;;5003237;28;20504;-79
2022/12/05 00:06:53;;;;;;;32.13;17.60;;;13.70;54.00;;;;;;4997946;28;20473;-81
2022/12/05 00:09:23;;;;;;;28.53;16.57;;;13.70;54.00;;;;;;4998426;28;20460;-80
2022/12/05 00:11:50;;;;;;;29.40;16.73;;;13.70;54.30;;;;;;4998423;28;20449;-81
2022/12/05 00:14:18;;;;;;;29.70;17.10;;;13.60;54.30;;;;;;4996995;28;20456;-80
2022/12/05 00:16:46;;;;;;;29.77;17.10;;;13.60;54.10;;;;;;4996312;28;20472;-80
2022/12/05 00:19:15;;;;;;;30.80;16.53;;;13.70;54.40;;;;;;4992574;28;20451;-79
2022/12/05 00:21:43;;;;;;;29.33;16.70;;;13.70;53.90;;;;;;4996586;28;20469;-79
2022/12/05 00:24:12;;;;;;;28.23;17.00;;;13.60;53.80;;;;;;4996590;28;20449;-79
2022/12/05 00:26:42;;;;;;;30.63;17.00;;;13.70;54.40;;;;;;5000714;28;20483;-81
2022/12/05 00:29:10;;;;;;;28.53;17.53;;;13.70;54.40;;;;;;4999594;28;20525;-78
2022/12/05 00:31:38;;;;;;;29.83;16.97;;;13.70;54.20;;;;;;5001403;28;20449;-80
2022/12/05 00:34:07;;;;;;;32.37;17.37;;;13.80;54.30;;;;;;4998362;28;20576;-79
2022/12/05 00:36:35;;;;;;;29.13;17.20;;;13.80;53.80;;;;;;4995851;28;20515;-80
2022/12/05 00:39:05;;;;;;;31.23;17.37;;;13.80;53.90;;;;;;4996848;28;20524;-81
2022/12/05 00:41:33;;;;;;;35.10;18.70;;;13.80;53.80;;;;;;5000265;28;20497;-80
2022/12/05 00:44:03;;;;;;;29.57;17.20;;;13.70;54.20;;;;;;4998796;28;20463;-81
2022/12/05 00:46:32;;;;;;;30.10;17.70;;;13.70;53.80;;;;;;4999918;28;20481;-81
2022/12/05 00:49:00;;;;;;;32.27;18.10;;;13.80;53.90;;;;;;5000231;28;20507;-80
2022/12/05 00:51:30;;;;;;;27.37;16.57;;;13.80;53.90;;;;;;4999256;28;20488;-80
2022/12/05 00:53:58;;;;;;;30.57;17.37;;;13.80;54.00;;;;;;4987054;28;20477;-80
2022/12/05 00:56:27;;;;;;;32.87;17.83;;;13.80;53.90;;;;;;4998100;28;20460;-79
2022/12/05 00:58:55;;;;;;;31.33;17.70;;;13.80;54.10;;;;;;4995451;28;20457;-79
2022/12/05 01:01:25;;;;;;;34.57;17.97;;;13.80;54.20;;;;;;4997771;28;20479;-79
2022/12/05 01:03:56;;;;;;;54.70;30.53;;;13.80;54.00;;;;;;4991941;28;20520;-79
2022/12/05 01:06:24;;;;;;;48.23;26.30;;;13.80;54.10;;;;;;4999107;28;20457;-80
2022/12/05 01:08:53;;;;;;;52.90;29.90;;;13.90;54.00;;;;;;4991433;28;20458;-80
2022/12/05 01:11:22;;;;;;;57.20;30.60;;;13.90;53.60;;;;;;4983218;28;20453;-80
2022/12/05 01:13:50;;;;;;;52.00;29.17;;;13.90;54.10;;;;;;5001843;28;20453;-80
2022/12/05 01:16:19;;;;;;;51.03;27.63;;;13.90;53.80;;;;;;5001821;28;20445;-80
2022/12/05 01:18:48;;;;;;;46.43;25.60;;;13.90;53.80;;;;;;5016487;28;20514;-80
2022/12/05 01:21:16;;;;;;;42.67;24.27;;;13.90;53.50;;;;;;5021748;28;20476;-79
2022/12/05 01:23:44;;;;;;;40.90;23.00;;;14.00;54.00;;;;;;5011945;28;20493;-81
2022/12/05 01:26:14;;;;;;;42.97;24.50;;;13.90;53.90;;;;;;5001440;28;20460;-80
2022/12/05 01:28:42;;;;;;;39.77;20.83;;;14.00;53.60;;;;;;5002607;28;20488;-80
2022/12/05 01:31:18;;;;;;;37.97;20.83;;;14.00;53.90;;;;;;5002478;28;20455;-80
2022/12/05 01:33:48;;;;;;;34.77;19.63;;;14.00;53.80;;;;;;4995603;28;20461;-79
2022/12/05 01:36:16;;;;;;;37.70;20.17;;;14.00;53.80;;;;;;4991055;28;20453;-79
2022/12/05 01:38:45;;;;;;;36.27;20.47;;;14.00;54.10;;;;;;4982301;28;21011;-80
2022/12/05 01:41:14;;;;;;;34.33;19.20;;;14.00;53.60;;;;;;4991772;28;20476;-79
2022/12/05 01:43:56;;;;;;;29.07;17.00;;;14.00;53.60;;;;;;5001975;28;20459;-80
2022/12/05 01:46:24;;;;;;;34.97;18.93;;;14.00;53.90;;;;;;5002259;28;20453;-79
2022/12/05 01:48:57;;;;;;;30.43;17.60;;;13.90;54.00;;;;;;5002876;28;20449;-79
2022/12/05 01:51:25;;;;;;;33.93;18.30;;;13.90;54.10;;;;;;5000902;28;20460;-80
2022/12/05 01:53:53;;;;;;;36.03;18.43;;;13.90;54.20;;;;;;5001866;28;20470;-80
2022/12/05 01:56:21;;;;;;;32.53;18.27;;;13.90;53.80;;;;;;5002160;28;20437;-80
2022/12/05 01:58:49;;;;;;;35.13;18.17;;;13.90;54.40;;;;;;5000684;28;20453;-80
2022/12/05 02:01:17;;;;;;;31.30;18.03;;;13.90;54.10;;;;;;4992720;28;20449;-80
2022/12/05 02:03:46;;;;;;;32.33;18.00;;;13.90;54.10;;;;;;4999097;28;20499;-80
2022/12/05 02:06:16;;;;;;;32.07;17.63;;;13.90;54.30;;;;;;5002234;28;20456;-80
2022/12/05 02:08:45;;;;;;;36.17;18.67;;;13.80;54.40;;;;;;5000108;28;20477;-80
2022/12/05 02:11:12;;;;;;;33.40;18.37;;;13.90;54.30;;;;;;5001537;28;20452;-80
2022/12/05 02:13:56;;;;;;;32.97;17.80;;;14.00;54.30;;;;;;5001259;28;20455;-80
2022/12/05 02:16:30;;;;;;;31.90;18.37;;;13.90;54.10;;;;;;5001486;28;20453;-79
2022/12/05 02:19:02;;;;;;;31.20;18.07;;;14.00;54.30;;;;;;5001232;28;20448;-79
2022/12/05 02:21:59;;;;;;;31.07;17.00;;;13.90;54.30;;;;;;5001888;28;20477;-79
2022/12/05 02:24:51;;;;;;;36.93;18.80;;;13.80;54.40;;;;;;4994395;28;20472;-80
2022/12/05 02:27:27;;;;;;;35.40;18.40;;;13.90;54.50;;;;;;4994300;28;20477;-79
2022/12/05 02:30:07;;;;;;;32.33;17.50;;;13.90;54.60;;;;;;4988827;28;20453;-80
2022/12/05 02:33:02;;;;;;;30.77;17.97;;;13.90;54.10;;;;;;4993414;28;20483;-80
2022/12/05 02:35:50;;;;;;;33.93;18.40;;;13.90;54.40;;;;;;4995463;28;20472;-80
2022/12/05 02:38:22;;;;;;;33.30;18.00;;;13.80;54.50;;;;;;4995498;28;20472;-79
2022/12/05 02:40:54;;;;;;;30.53;16.77;;;13.90;54.70;;;;;;4997025;28;20484;-80
2022/12/05 02:43:24;;;;;;;33.37;18.10;;;13.90;54.20;;;;;;4996069;28;20520;-80
2022/12/05 02:45:55;;;;;;;29.33;17.67;;;13.90;54.40;;;;;;4995306;28;20465;-80
2022/12/05 02:48:23;;;;;;;31.17;17.43;;;14.00;54.50;;;;;;4995329;28;20922;-80
2022/12/05 02:50:51;;;;;;;30.20;17.27;;;14.00;54.30;;;;;;4997294;28;20972;-79
2022/12/05 02:53:19;;;;;;;30.53;17.80;;;14.00;54.30;;;;;;4994578;28;20458;-80
2022/12/05 02:55:47;;;;;;;32.00;17.60;;;14.00;54.30;;;;;;4994300;28;20465;-79
2022/12/05 02:58:17;;;;;;;28.17;17.23;;;14.00;54.30;;;;;;4995969;28;20488;-79
2022/12/05 03:00:47;;;;;;;31.30;17.40;;;14.10;54.20;;;;;;4994111;28;20460;-79
2022/12/05 03:03:17;;;;;;;29.90;16.37;;;14.10;54.20;;;;;;4992893;28;20481;-79
2022/12/05 03:05:49;;;;;;;29.17;16.57;;;14.00;54.30;;;;;;4993709;28;20457;-79
2022/12/05 03:08:19;;;;;;;34.77;18.00;;;14.10;54.30;;;;;;4998586;28;20481;-80
2022/12/05 03:10:47;;;;;;;29.57;16.63;;;14.10;54.10;;;;;;4994671;28;20457;-80
2022/12/05 03:13:17;;;;;;;31.17;17.47;;;14.10;54.20;;;;;;4993364;28;20460;-79
2022/12/05 03:15:46;;;;;;;31.67;18.23;;;14.00;54.20;;;;;;4990183;28;20449;-79
2022/12/05 03:18:17;;;;;;;29.97;16.33;;;14.10;54.10;;;;;;4998198;28;20515;-79
2022/12/05 03:20:45;;;;;;;28.93;16.60;;;14.10;54.30;;;;;;4995017;28;20445;-77
2022/12/05 03:23:15;;;;;;;27.73;15.97;;;14.10;54.30;;;;;;4992438;28;20622;-79
2022/12/05 03:25:47;;;;;;;27.73;16.60;;;14.10;54.30;;;;;;4992343;28;20457;-79
2022/12/05 03:28:18;;;;;;;31.60;16.53;;;14.10;54.20;;;;;;4989050;28;20472;-78
2022/12/05 03:30:46;;;;;;;31.23;16.80;;;14.10;54.30;;;;;;4991909;28;20457;-79
2022/12/05 03:33:18;;;;;;;26.50;16.93;;;14.00;54.60;;;;;;4993356;28;20457;-79
2022/12/05 03:35:47;;;;;;;30.93;16.60;;;14.00;54.90;;;;;;4994549;28;20461;-80
2022/12/05 03:38:16;;;;;;;27.73;16.13;;;14.00;54.90;;;;;;4994383;28;20473;-80
2022/12/05 03:40:46;;;;;;;28.60;15.40;;;14.00;55.20;;;;;;4989114;28;20474;-79
2022/12/05 03:43:16;;;;;;;29.67;16.17;;;14.00;54.80;;;;;;4983400;28;20470;-80
2022/12/05 03:45:46;;;;;;;25.77;14.80;;;13.90;54.90;;;;;;5001683;28;20445;-79
2022/12/05 03:48:18;;;;;;;26.57;15.90;;;13.90;54.90;;;;;;4997907;28;20473;-80
2022/12/05 03:50:47;;;;;;;26.83;15.67;;;13.90;55.10;;;;;;4997763;28;20460;-80
2022/12/05 03:53:16;;;;;;;25.93;15.73;;;13.90;55.20;;;;;;4998783;28;20441;-79
2022/12/05 03:55:47;;;;;;;27.30;15.67;;;14.00;55.20;;;;;;4999803;28;20457;-79
2022/12/05 03:58:17;;;;;;;24.80;15.13;;;13.90;55.00;;;;;;5002108;28;20481;-80
2022/12/05 04:00:46;;;;;;;25.20;15.33;;;13.80;55.40;;;;;;4999092;28;20460;-80
2022/12/05 04:03:16;;;;;;;25.67;15.00;;;13.90;55.50;;;;;;5001387;28;20480;-80
2022/12/05 04:05:46;;;;;;;26.23;14.20;;;13.90;55.30;;;;;;5003168;28;20466;-79
2022/12/05 04:08:16;;;;;;;22.73;14.30;;;13.80;55.60;;;;;;4996904;28;20477;-80
2022/12/05 04:10:48;;;;;;;22.97;14.50;;;13.80;55.40;;;;;;4999585;28;20457;-80
2022/12/05 04:13:20;;;;;;;24.60;14.30;;;13.80;55.90;;;;;;4995592;28;20453;-79
2022/12/05 04:18:38;;;;;;;23.97;14.37;;;13.90;55.70;;;;;;5000185;28;20477;-80
2022/12/05 04:26:34;;;;;;;23.10;13.70;;;13.80;56.10;;;;;;4996294;28;20473;-80
2022/12/05 04:29:05;;;;;;;26.13;15.20;;;13.80;55.60;;;;;;4999457;28;20469;-79
2022/12/05 04:31:34;;;;;;;22.60;13.77;;;13.70;55.90;;;;;;5000027;28;20452;-80
2022/12/05 04:34:04;;;;;;;25.90;15.07;;;13.80;56.20;;;;;;4999377;28;20445;-80
2022/12/05 04:36:33;;;;;;;24.83;14.60;;;13.70;55.90;;;;;;4994094;28;20478;-80
2022/12/05 04:39:04;;;;;;;28.03;16.67;;;13.80;56.10;;;;;;4999196;28;20462;-79
2022/12/05 04:41:33;;;;;;;27.90;16.70;;;13.80;55.90;;;;;;4997867;28;20476;-79
2022/12/05 04:44:03;;;;;;;24.30;14.73;;;13.80;56.10;;;;;;4996529;28;21042;-80
2022/12/05 04:46:31;;;;;;;24.80;15.30;;;13.70;56.00;;;;;;4996923;28;20485;-79
2022/12/05 04:49:00;;;;;;;24.70;15.47;;;13.80;56.20;;;;;;4998106;28;20461;-79
2022/12/05 04:51:30;;;;;;;21.83;14.00;;;13.60;56.10;;;;;;4997403;28;20453;-79
2022/12/05 04:54:02;;;;;;;22.57;13.40;;;13.50;56.90;;;;;;4998016;28;20457;-79
2022/12/05 04:56:32;;;;;;;23.80;14.30;;;13.60;57.20;;;;;;5000150;28;20449;-80
2022/12/05 04:58:59;;;;;;;22.90;14.10;;;13.60;56.70;;;;;;5000682;28;20449;-80
2022/12/05 05:01:29;;;;;;;23.40;13.73;;;13.60;56.70;;;;;;4999833;28;20531;-80
2022/12/05 05:03:59;;;;;;;20.00;13.30;;;13.60;57.10;;;;;;4996441;28;20496;-79
2022/12/05 05:06:27;;;;;;;21.27;11.97;;;13.60;56.90;;;;;;4995981;28;20450;-79
2022/12/05 05:08:56;;;;;;;21.90;12.87;;;13.50;57.00;;;;;;4996415;28;20472;-79
2022/12/05 05:11:25;;;;;;;19.63;12.07;;;13.60;57.00;;;;;;4995005;28;20449;-79
2022/12/05 05:13:53;;;;;;;18.73;11.93;;;13.60;57.30;;;;;;4997632;28;20452;-79
2022/12/05 05:16:22;;;;;;;21.10;12.43;;;13.70;57.10;;;;;;4996825;28;20449;-79
2022/12/05 05:18:50;;;;;;;18.90;12.00;;;13.70;57.10;;;;;;4996941;28;20457;-80
2022/12/05 05:21:20;;;;;;;18.90;11.87;;;13.70;57.00;;;;;;4996983;28;20441;-80
2022/12/05 05:23:47;;;;;;;18.33;11.80;;;13.70;57.00;;;;;;4993295;28;20473;-80
2022/12/05 05:26:17;;;;;;;19.83;12.40;;;13.70;56.90;;;;;;4996489;28;20480;-80
2022/12/05 05:28:45;;;;;;;17.10;11.40;;;13.70;57.20;;;;;;4994325;28;20445;-79
2022/12/05 05:31:13;;;;;;;20.20;11.70;;;13.60;57.20;;;;;;4996200;28;20453;-80
2022/12/05 05:33:41;;;;;;;17.57;11.00;;;13.60;57.60;;;;;;4998544;28;20476;-80
2022/12/05 05:36:10;;;;;;;15.53;10.03;;;13.60;57.60;;;;;;4995797;28;20457;-80
2022/12/05 05:38:40;;;;;;;17.67;11.20;;;13.60;57.90;;;;;;4993042;28;20445;-80
2022/12/05 05:41:12;;;;;;;16.00;10.23;;;13.60;57.90;;;;;;4994194;28;20453;-80
2022/12/05 05:43:42;;;;;;;16.10;10.07;;;13.70;58.10;;;;;;4996439;28;20469;-80
2022/12/05 05:46:10;;;;;;;19.03;11.10;;;13.60;57.60;;;;;;4997289;28;20457;-80
2022/12/05 05:48:38;;;;;;;16.87;10.17;;;13.60;58.10;;;;;;4997257;28;20462;-80
2022/12/05 05:51:07;;;;;;;16.20;10.80;;;13.70;57.80;;;;;;4993586;28;20461;-80
2022/12/05 05:53:35;;;;;;;15.40;10.23;;;13.70;57.80;;;;;;4996097;28;20456;-80
2022/12/05 05:56:03;;;;;;;15.03;10.33;;;13.70;57.80;;;;;;4996642;28;20461;-80
2022/12/05 05:58:31;;;;;;;16.30;10.10;;;13.70;58.00;;;;;;4994987;28;20473;-79
2022/12/05 06:01:04;;;;;;;14.87;10.57;;;13.70;57.90;;;;;;4994295;28;20457;-80
2022/12/05 06:03:32;;;;;;;17.33;10.47;;;13.70;57.90;;;;;;4997751;28;20472;-80
2022/12/05 06:06:01;;;;;;;16.60;10.27;;;13.70;57.90;;;;;;4997472;28;20453;-79
2022/12/05 06:08:29;;;;;;;14.80;9.70;;;13.60;58.40;;;;;;4993215;28;20492;-79
2022/12/05 06:10:57;;;;;;;15.33;10.10;;;13.70;58.40;;;;;;4998084;28;20453;-79
2022/12/05 06:13:25;;;;;;;16.13;10.20;;;13.70;58.40;;;;;;4995387;28;20465;-79
2022/12/05 06:15:53;;;;;;;14.30;9.83;;;13.80;58.20;;;;;;4998040;28;20464;-80
2022/12/05 06:18:23;;;;;;;13.90;9.20;;;13.80;58.10;;;;;;4992734;28;20481;-80
2022/12/05 06:20:54;;;;;;;13.30;9.00;;;13.80;58.20;;;;;;4986114;28;20449;-80
2022/12/05 06:23:22;;;;;;;12.67;8.67;;;13.90;57.90;;;;;;4991462;28;20453;-80
2022/12/05 06:25:51;;;;;;;11.00;8.23;;;13.90;58.30;;;;;;4994963;28;20453;-80
2022/12/05 06:28:19;;;;;;;9.77;7.70;;;13.80;58.40;;;;;;4999184;28;20473;-80
2022/12/05 06:30:47;;;;;;;11.53;7.67;;;13.90;58.40;;;;;;4998880;28;20445;-80
2022/12/05 06:33:15;;;;;;;8.77;6.77;;;13.90;58.40;;;;;;4998385;28;20453;-80
2022/12/05 06:35:45;;;;;;;7.80;5.90;;;14.00;58.20;;;;;;4996721;28;20454;-80
2022/12/05 06:38:13;;;;;;;7.33;5.70;;;13.90;58.20;;;;;;4998234;28;20465;-80
2022/12/05 06:40:41;;;;;;;7.00;5.50;;;14.00;58.10;;;;;;4997009;28;20456;-79
2022/12/05 06:43:09;;;;;;;6.97;5.67;;;14.00;58.40;;;;;;4998317;28;20456;-80
2022/12/05 06:45:37;;;;;;;7.60;5.47;;;14.00;58.30;;;;;;5000974;28;20500;-81
2022/12/05 06:48:05;;;;;;;4.90;4.40;;;14.00;58.50;;;;;;4999195;28;20465;-80
2022/12/05 06:50:34;;;;;;;5.47;4.77;;;14.00;58.40;;;;;;4999846;28;20524;-80
2022/12/05 06:53:03;;;;;;;4.70;4.20;;;14.00;58.30;;;;;;4998045;28;20461;-81
2022/12/05 06:55:31;;;;;;;15.00;10.03;;;14.10;58.40;;;;;;5000117;28;20466;-81
2022/12/05 06:58:00;;;;;;;8.10;6.27;;;13.90;58.40;;;;;;4997983;28;20473;-80
2022/12/05 07:03:13;;;;;;;9.27;6.60;;;14.10;58.20;;;;;;5000266;28;20464;-80
2022/12/05 07:05:41;;;;;;;6.27;4.90;;;14.10;58.50;;;;;;4998323;28;20548;-81
2022/12/05 07:08:10;;;;;;;5.33;4.43;;;14.00;58.50;;;;;;4998676;28;20472;-80
2022/12/05 07:10:38;;;;;;;6.50;4.83;;;14.10;58.50;;;;;;5000464;28;20496;-81
2022/12/05 07:13:06;;;;;;;5.33;4.83;;;14.10;58.50;;;;;;4999591;28;20457;-81
2022/12/05 07:15:39;;;;;;;5.80;4.90;;;14.10;58.40;;;;;;4999259;28;20480;-80
2022/12/05 07:18:07;;;;;;;5.10;4.07;;;14.10;58.60;;;;;;4997183;28;20853;-80
2022/12/05 07:20:36;;;;;;;6.03;5.07;;;14.10;58.30;;;;;;4995034;28;20462;-80
2022/12/05 07:23:25;;;;;;;6.70;5.57;;;14.10;58.00;;;;;;4998065;28;20499;-80
2022/12/05 07:25:53;;;;;;;7.07;5.20;;;14.10;58.70;;;;;;4993245;28;20496;-81
2022/12/05 07:28:21;;;;;;;6.90;5.77;;;14.00;58.70;;;;;;4998738;28;20477;-81
2022/12/05 07:30:49;;;;;;;10.37;6.80;;;14.10;58.90;;;;;;5001517;28;20449;-80
2022/12/05 07:33:17;;;;;;;8.00;5.90;;;14.20;58.80;;;;;;5001958;28;20464;-81
2022/12/05 07:35:45;;;;;;;6.83;6.00;;;14.20;58.50;;;;;;5005811;28;20484;-81
2022/12/05 07:38:13;;;;;;;7.77;5.30;;;14.20;58.40;;;;;;5000772;28;20473;-80
2022/12/05 07:40:43;;;;;;;6.73;5.40;;;14.30;58.40;;;;;;5003563;28;20457;-80
2022/12/05 07:43:11;;;;;;;7.73;5.60;;;14.30;58.30;;;;;;4999671;28;20457;-80
2022/12/05 07:45:39;;;;;;;9.70;4.50;;;14.30;58.20;;;;;;5003039;28;20469;-80
2022/12/05 07:48:07;;;;;;;5.37;4.80;;;14.30;58.20;;;;;;4997310;28;20481;-80
2022/12/05 07:50:39;;;;;;;6.47;5.47;;;14.30;58.30;;;;;;5001908;28;20483;-80
2022/12/05 07:53:07;;;;;;;5.10;4.60;;;14.30;58.40;;;;;;5001859;28;20456;-80
2022/12/05 07:55:37;;;;;;;5.77;4.80;;;14.20;58.40;;;;;;4998251;28;20457;-80
2022/12/05 07:58:06;;;;;;;6.73;5.17;;;14.20;58.40;;;;;;5002069;28;20536;-80
2022/12/05 08:00:35;;;;;;;5.47;5.07;;;14.20;58.70;;;;;;5002582;28;20457;-80
2022/12/05 08:03:03;;;;;;;5.67;5.17;;;14.10;58.60;;;;;;5001888;28;20453;-80
2022/12/05 08:05:33;;;;;;;6.00;5.20;;;14.10;59.00;;;;;;4997828;28;20485;-80
2022/12/05 08:08:01;;;;;;;5.80;4.67;;;14.20;59.10;;;;;;4996838;28;20477;-81
2022/12/05 08:10:29;;;;;;;5.47;4.87;;;14.20;58.90;;;;;;4997009;28;20457;-80
2022/12/05 08:12:57;;;;;;;5.00;4.60;;;14.30;58.70;;;;;;5001817;28;20457;-80
2022/12/05 08:15:26;;;;;;;6.00;5.13;;;14.30;58.50;;;;;;4996298;28;20927;-81
2022/12/05 08:17:54;;;;;;;5.20;4.70;;;14.20;58.80;;;;;;5000961;28;20632;-80
2022/12/05 08:20:22;;;;;;;5.33;4.83;;;14.20;58.60;;;;;;4997163;28;20469;-80
2022/12/05 08:22:51;;;;;;;5.30;4.20;;;14.20;58.70;;;;;;5000484;28;20449;-81
2022/12/05 08:25:19;;;;;;;5.13;4.63;;;14.30;58.60;;;;;;4995315;28;20478;-80
2022/12/05 08:27:47;;;;;;;5.00;4.60;;;14.30;58.80;;;;;;4998506;28;20496;-80
2022/12/05 08:30:15;;;;;;;5.60;4.70;;;14.30;58.50;;;;;;4993491;28;20454;-79
2022/12/05 08:32:45;;;;;;;4.83;4.37;;;14.20;59.00;;;;;;5002235;28;20464;-80
2022/12/05 08:35:13;;;;;;;5.00;4.50;;;14.30;58.70;;;;;;5001685;28;20453;-80
2022/12/05 08:37:40;;;;;;;5.80;4.87;;;14.30;58.80;;;;;;5001774;28;20547;-80
2022/12/05 08:40:09;;;;;;;4.90;4.50;;;14.40;58.60;;;;;;5000095;28;20453;-80
2022/12/05 08:42:37;;;;;;;4.87;4.47;;;14.30;58.10;;;;;;4999046;28;20458;-80
2022/12/05 08:45:06;;;;;;;4.80;4.30;;;14.30;58.70;;;;;;4996487;28;20472;-80
2022/12/05 08:47:34;;;;;;;4.77;4.20;;;14.20;58.50;;;;;;5001187;28;20495;-80
2022/12/05 08:50:04;;;;;;;4.60;4.20;;;14.20;59.00;;;;;;4999015;28;20464;-81
2022/12/05 08:52:32;;;;;;;4.10;3.70;;;14.30;58.80;;;;;;4998929;28;20465;-81
2022/12/05 08:55:00;;;;;;;4.93;4.47;;;14.30;58.60;;;;;;4999837;28;20460;-81
2022/12/05 08:57:28;;;;;;;4.70;4.30;;;14.40;58.70;;;;;;5000969;28;20484;-80
2022/12/05 08:59:57;;;;;;;4.53;4.13;;;14.40;58.30;;;;;;4996955;28;20465;-80
2022/12/05 09:02:25;;;;;;;4.97;4.47;;;14.30;58.80;;;;;;4995045;28;20457;-81
2022/12/05 09:04:53;;;;;;;4.87;4.40;;;14.30;58.60;;;;;;4997498;28;20445;-80
2022/12/05 09:07:22;;;;;;;4.90;4.40;;;14.20;58.30;;;;;;4995384;28;20470;-80
2022/12/05 09:09:51;;;;;;;8.60;5.50;;;14.20;58.60;;;;;;5000367;28;20449;-80
2022/12/05 09:12:18;;;;;;;8.97;6.40;;;14.30;58.80;;;;;;4998300;28;20453;-80
2022/12/05 09:14:47;;;;;;;8.07;6.10;;;14.40;58.70;;;;;;4995354;28;20449;-81
2022/12/05 09:17:15;;;;;;;5.70;5.03;;;14.40;58.40;;;;;;5001447;28;20485;-80
2022/12/05 09:19:43;;;;;;;5.70;5.10;;;14.50;58.40;;;;;;5000533;28;20457;-81
2022/12/05 09:22:11;;;;;;;5.80;5.00;;;14.50;58.40;;;;;;4997373;28;20453;-82
2022/12/05 09:24:41;;;;;;;5.60;5.03;;;14.30;57.90;;;;;;5000594;28;20460;-81
2022/12/05 09:27:08;;;;;;;5.43;4.60;;;14.30;58.40;;;;;;4999037;28;20488;-81
2022/12/05 09:29:37;;;;;;;5.17;4.57;;;14.40;58.80;;;;;;4989049;28;20453;-80
2022/12/05 09:32:05;;;;;;;4.97;4.57;;;14.40;58.50;;;;;;4984980;28;20438;-80
2022/12/05 09:34:33;;;;;;;5.17;4.57;;;14.40;58.60;;;;;;5002511;28;20440;-80
2022/12/05 09:37:01;;;;;;;5.27;4.63;;;14.40;58.60;;;;;;5000238;28;20477;-80
2022/12/05 09:39:50;;;;;;;4.70;4.30;;;14.40;58.50;;;;;;4998012;28;20475;-81
2022/12/05 09:42:36;;;;;;;5.63;4.70;;;14.40;58.40;;;;;;5001930;28;20452;-80
2022/12/05 09:45:16;;;;;;;4.20;3.80;;;14.30;58.20;;;;;;5001481;28;20413;-80
2022/12/05 09:47:48;;;;;;;5.57;4.70;;;14.30;58.30;;;;;;5001825;28;20987;-80
2022/12/05 09:50:19;;;;;;;4.80;4.30;;;14.30;58.10;;;;;;5001468;28;20429;-80
2022/12/05 09:52:54;;;;;;;4.50;4.10;;;14.40;58.80;;;;;;5000910;28;20452;-80
2022/12/05 09:55:23;;;;;;;5.80;4.67;;;14.30;58.50;;;;;;5005155;28;20460;-80
2022/12/05 09:57:52;;;;;;;4.90;4.40;;;14.30;58.20;;;;;;5000407;28;20460;-80
2022/12/05 10:00:20;;;;;;;5.57;4.70;;;14.40;58.50;;;;;;5001497;28;20441;-80
2022/12/05 10:02:54;;;;;;;5.10;4.40;;;14.40;58.40;;;;;;4998032;28;20449;-80
2022/12/05 10:05:24;;;;;;;6.20;4.87;;;14.40;58.40;;;;;;4995917;28;20528;-79
2022/12/05 10:07:57;;;;;;;4.40;4.00;;;14.40;58.40;;;;;;4998592;28;20508;-80
2022/12/05 10:10:32;;;;;;;7.23;4.47;;;14.30;58.20;;;;;;4996171;28;20450;-80
2022/12/05 10:13:07;;;;;;;4.57;4.17;;;14.10;59.00;;;;;;4999255;28;20448;-79
2022/12/05 10:15:37;;;;;;;7.13;5.47;;;14.10;59.00;;;;;;4981471;28;20442;-79
2022/12/05 10:18:11;;;;;;;9.90;6.83;;;14.20;59.00;;;;;;4992802;28;20489;-82
2022/12/05 10:20:43;;;;;;;7.20;6.07;;;14.30;58.80;;;;;;4997420;28;20460;-81
2022/12/05 10:23:14;;;;;;;7.03;5.63;;;14.30;59.00;;;;;;4992780;28;20462;-81
2022/12/05 10:26:05;;;;;;;13.63;8.37;;;14.30;58.70;;;;;;4997421;28;20488;-82
2022/12/05 10:28:36;;;;;;;10.00;7.07;;;14.30;58.80;;;;;;4992996;28;20482;-83
2022/12/05 10:31:07;;;;;;;9.50;6.40;;;14.40;58.70;;;;;;4993135;28;20445;-81
2022/12/05 10:33:38;;;;;;;6.50;5.60;;;14.40;58.40;;;;;;4999931;28;20445;-81
2022/12/05 10:36:12;;;;;;;9.03;6.17;;;14.40;58.40;;;;;;5000195;28;20450;-80
2022/12/05 10:38:40;;;;;;;6.77;5.37;;;14.40;58.40;;;;;;4998209;28;20457;-81
2022/12/05 10:41:10;;;;;;;9.77;5.80;;;14.30;58.20;;;;;;5002945;28;20453;-80
2022/12/05 10:43:40;;;;;;;7.17;6.10;;;14.20;58.50;;;;;;5003122;28;20461;-80
2022/12/05 10:46:08;;;;;;;9.90;6.87;;;14.10;58.50;;;;;;5004067;28;20480;-80
2022/12/05 10:48:43;;;;;;;8.37;6.63;;;14.00;58.90;;;;;;5000479;28;20591;-80
2022/12/05 10:51:13;;;;;;;8.60;6.57;;;14.10;59.00;;;;;;4997714;28;20464;-80
2022/12/05 10:53:43;;;;;;;6.03;5.43;;;14.10;58.80;;;;;;5000250;28;20460;-80
2022/12/05 10:56:40;;;;;;;6.27;5.37;;;14.10;59.20;;;;;;4998501;28;20449;-80
2022/12/05 10:59:09;;;;;;;7.93;5.43;;;14.20;58.80;;;;;;4999708;28;20457;-80
2022/12/05 11:01:37;;;;;;;7.90;5.03;;;14.20;58.80;;;;;;5000030;28;20461;-81
2022/12/05 11:04:10;;;;;;;6.77;5.50;;;14.20;58.90;;;;;;5001707;28;20511;-81
2022/12/05 11:06:40;;;;;;;8.20;6.00;;;14.20;58.70;;;;;;5000760;28;20484;-81
2022/12/05 11:09:14;;;;;;;9.50;5.10;;;14.20;58.60;;;;;;5000530;28;20457;-80
2022/12/05 11:11:44;;;;;;;6.33;5.10;;;14.20;58.40;;;;;;5000750;28;20461;-80
2022/12/05 11:14:21;;;;;;;6.30;5.70;;;14.20;58.50;;;;;;5002813;28;20462;-81
2022/12/05 11:16:53;;;;;;;5.10;4.60;;;14.20;58.20;;;;;;5001251;28;20544;-80
2022/12/05 11:19:26;;;;;;;5.70;4.90;;;14.10;58.80;;;;;;4995688;28;20458;-80
2022/12/05 11:21:54;;;;;;;5.20;4.70;;;14.10;58.60;;;;;;5001704;28;20455;-81
2022/12/05 11:24:25;;;;;;;7.07;5.90;;;14.20;58.80;;;;;;4999353;28;20458;-80
2022/12/05 11:26:54;;;;;;;12.43;6.47;;;14.30;58.80;;;;;;5001893;28;20496;-80
2022/12/05 11:29:33;;;;;;;8.80;6.93;;;14.40;58.50;;;;;;5000237;28;20488;-81
2022/12/05 11:32:03;;;;;;;10.27;6.97;;;14.40;58.40;;;;;;4993903;28;20441;-82
2022/12/05 11:34:35;;;;;;;5.60;5.00;;;14.30;58.80;;;;;;5002025;28;20460;-81
2022/12/05 11:37:06;;;;;;;5.90;5.37;;;14.40;59.40;;;;;;5001266;28;20476;-81
2022/12/05 11:39:34;;;;;;;6.30;5.03;;;14.60;59.40;;;;;;5002048;28;20452;-82
2022/12/05 11:42:16;;;;;;;6.80;5.13;;;14.70;59.30;;;;;;5000643;28;20460;-80
2022/12/05 11:44:53;;;;;;;8.73;5.30;;;14.80;59.20;;;;;;5001369;28;20524;-83
2022/12/05 11:47:27;;;;;;;7.13;5.00;;;14.90;59.10;;;;;;5003453;28;20477;-81
2022/12/05 11:50:18;;;;;;;5.90;5.30;;;15.00;59.20;;;;;;5003021;28;20457;-82
2022/12/05 11:52:57;;;;;;;6.93;5.20;;;15.00;59.10;;;;;;5002768;28;20461;-80
2022/12/05 11:55:26;;;;;;;4.80;4.30;;;15.10;59.00;;;;;;4997054;28;20453;-80
2022/12/05 11:58:04;;;;;;;4.73;4.30;;;15.10;59.00;;;;;;5003038;28;20465;-80
2022/12/05 12:00:34;;;;;;;9.43;5.07;;;15.10;58.90;;;;;;4999483;28;20461;-80
2022/12/05 12:03:23;;;;;;;6.77;4.57;;;15.10;58.90;;;;;;5005676;28;20460;-80
2022/12/05 12:06:05;;;;;;;5.03;4.27;;;15.20;59.00;;;;;;5005356;28;20459;-81
2022/12/05 12:08:35;;;;;;;10.33;4.60;;;15.20;59.00;;;;;;5006425;28;20503;-80
2022/12/05 12:11:06;;;;;;;5.93;4.70;;;15.10;59.00;;;;;;5007335;28;20532;-80
2022/12/05 12:13:43;;;;;;;4.60;4.10;;;15.10;58.90;;;;;;5010287;28;20540;-81
2022/12/05 12:16:15;;;;;;;6.33;4.70;;;15.20;59.20;;;;;;5006382;28;20522;-81
2022/12/05 12:19:10;;;;;;;5.53;4.33;;;15.20;59.00;;;;;;5010131;28;20477;-82
2022/12/05 12:21:49;;;;;;;4.90;4.00;;;15.20;59.00;;;;;;5001559;28;20425;-81
2022/12/05 12:24:22;;;;;;;5.30;4.60;;;15.20;59.20;;;;;;5006770;28;20445;-82
2022/12/05 12:26:56;;;;;;;5.00;4.50;;;15.20;59.00;;;;;;5001363;28;20476;-80
2022/12/05 12:29:32;;;;;;;4.00;3.70;;;15.20;59.10;;;;;;4998218;28;20453;-80
2022/12/05 12:32:08;;;;;;;4.57;4.17;;;15.20;59.10;;;;;;4995928;28;20437;-80
2022/12/05 12:34:49;;;;;;;3.97;3.67;;;15.20;58.90;;;;;;5006502;28;20456;-80
2022/12/05 12:37:20;;;;;;;5.40;4.50;;;15.20;58.80;;;;;;5005566;28;20453;-80
2022/12/05 12:39:52;;;;;;;7.10;4.40;;;15.20;59.00;;;;;;5005885;28;20449;-80
2022/12/05 12:42:24;;;;;;;5.20;3.90;;;15.20;58.90;;;;;;5004649;28;20457;-81
2022/12/05 12:45:23;;;;;;;5.07;4.30;;;15.20;59.00;;;;;;4998466;28;20521;-81
2022/12/05 12:48:08;;;;;;;5.20;4.07;;;15.20;58.80;;;;;;4997313;28;20476;-81
2022/12/05 12:50:37;;;;;;;5.00;4.50;;;15.20;58.90;;;;;;4996778;28;20445;-79
2022/12/05 12:53:29;;;;;;;4.63;3.90;;;15.30;59.00;;;;;;4994337;28;20449;-78
2022/12/05 12:56:00;;;;;;;5.70;4.10;;;15.30;59.00;;;;;;4994983;28;20476;-80
2022/12/05 12:58:39;;;;;;;4.63;4.23;;;15.20;58.90;;;;;;4990593;28;20464;-79
2022/12/05 13:01:11;;;;;;;4.60;4.00;;;15.30;59.10;;;;;;4997508;28;20453;-79
2022/12/05 13:03:43;;;;;;;5.57;4.27;;;15.30;59.00;;;;;;4994818;28;20453;-79
2022/12/05 13:06:21;;;;;;;4.23;3.90;;;15.30;59.00;;;;;;4993833;28;20460;-79
2022/12/05 13:08:50;;;;;;;5.20;4.47;;;15.30;59.00;;;;;;4993011;28;20563;-79